Alta Vista, Kansas
Current Conditions -  °F | °C
As of 7:58 PM on Friday 31 Oct 2014 (Local Time) from KFRI Reporting Station
Clear Clear  
Wind Chill: 34°   Ceiling: Unl
Heat Index: 34°   Visibility: 10mi
Dew Point: 17°   Wind: 0mph
Humidity: 50%   Direction: NA
Pressure: 30.45"   Gusts: NA
Location:  38.86°N, 96.49°W
Report Text: KFRI 010058Z AUTO 00000KT 10SM CLR 01/M08 A3045 RMK AO2 SLP320 T00131081
Loading
Personal Weather Stations






























Interactive Weather Map
Tropical Storm Tracking
New forecast layout! Learn more

10-Day Weather Forecast

Advertisements
Track Severe Weather on mobile